BGKK

Kulusuk Airport

Kulusuk, Greenland

BGKK 260050Z AUTO 07037G55KT 9999NDV -RA BKN024/// 07/01 Q1001

Observed Flight Rules
Sep-26 @ 00:50 UTC (an hour ago)
Unavailable
Wind Clouds Conditions
70° at 37 knots
 Gusting to 55 knots
  • Broken at 2,400' AGL
  • Light Rain
Temperatures Readings
Current 7°C / 45°F
Dewpoint 1°C / 34°F
Humidity 66%
Altimeter 29.56" Hg
Pressure 1001 hPa
Elevation 34
Observed Flight Rules
Sep-26 @ 00:50 UTC
(an hour ago)
UNK
Wind
70° at 37 knots
 Gusting to 55 knots
Clouds Conditions
  • Broken at 2,400' AGL
  • Light Rain
Temperature Dewpoint
7°C / 45°F 1°C / 34°F
Humidity Altimeter Pressure
66% 29.56" Hg 1001 hPa